Sunflower Hakata — JL6711 — position and weather

sailwx.info

Track history (hours):
 
Tides and Currents Weather Stations Pressure Air Temp Water Temp Dewpoint Dewpoint Depression Visibility Wind Speed Wind Dir Waves Ship Positions

Sunflower Hakata

Last reported at 2014-Dec-22 20:32 UTC. Time now 2014-Dec-22 21:24 UTC.
Position N 33°37' E 130°24'.

Length 167 m; draft 6.5 m.

Type: Cargo ship. MMSI: 431501764.

Date/timePositionNaut miles runAvg speedWind from/ knotsBaromVisibWave heightAir tempDewpointWater temp
2014-Dec-22 20:32N 33°37' E 130°24'0 0.0
2014-Dec-22 19:32N 33°37' E 130°24'0 0.0
2014-Dec-22 18:32N 33°37' E 130°24'0 0.0
2014-Dec-22 17:32N 33°37' E 130°24'0 0.0
2014-Dec-22 16:32N 33°37' E 130°24'0 0.0
2014-Dec-22 15:32N 33°37' E 130°24'0 0.0
2014-Dec-22 14:32N 33°37' E 130°24'0 0.0
2014-Dec-22 13:32N 33°37' E 130°24'0 0.0
2014-Dec-22 12:32N 33°37' E 130°24'0 0.0
2014-Dec-22 11:32N 33°37' E 130°24'0 0.0
2014-Dec-22 10:32N 33°37' E 130°24'0 0.0
2014-Dec-22 09:32N 33°37' E 130°24'0 0.0
2014-Dec-22 08:32N 33°37' E 130°24'0 0.0
2014-Dec-22 07:32N 33°37' E 130°24'0 0.0
2014-Dec-22 06:32N 33°37' E 130°24'0 0.0
2014-Dec-22 05:32N 33°37' E 130°24'0 0.0
2014-Dec-22 04:32N 33°37' E 130°24'0 0.0
2014-Dec-22 03:32N 33°37' E 130°24'0 0.0
2014-Dec-22 02:32N 33°37' E 130°24'0 0.0
2014-Dec-22 01:32N 33°37' E 130°24'0 0.0
2014-Dec-22 00:32N 33°37' E 130°24'0 0.0
2014-Dec-21 23:32N 33°37' E 130°24'0 0.0
2014-Dec-21 22:32N 33°37' E 130°24'0 0.0
2014-Dec-21 21:33N 33°37' E 130°24'0 0.3
2014-Dec-21 20:33N 33°37' E 130°24'9 9.2
2014-Dec-21 19:33N 33°44' E 130°16'3416.7
2014-Dec-21 17:31N 34°01' E 130°51'44016.3
2014-Dec-20 14:32N 35°04' E 139°40'1414.3
2014-Dec-20 13:33N 35°17' E 139°44'1515.5
2014-Dec-20 12:33N 35°32' E 139°51'6 5.9
2014-Dec-20 11:33N 35°37' E 139°48'0 0.0
2014-Dec-19 23:21N 35°37' E 139°48'2 3.0
2014-Dec-19 22:33N 35°36' E 139°50'1515.5
2014-Dec-19 21:33N 35°21' E 139°45'1414.1
2014-Dec-19 20:33N 35°07' E 139°44'24520.1
2014-Dec-19 08:24N 33°54' E 135°01'1922.4
2014-Dec-19 07:33N 34°13' E 134°59'2121.1
2014-Dec-19 06:34N 34°34' E 135°03'21214.1
2014-Dec-18 15:32N 34°02' E 130°49'2121.5
2014-Dec-18 14:33N 33°57' E 130°24'1918.6
2014-Dec-18 13:33N 33°39' E 130°17'6 6.0
2014-Dec-18 12:32N 33°38' E 130°24'0 0.0
2014-Dec-18 11:32N 33°38' E 130°24'0 0.0
2014-Dec-18 10:29N 33°38' E 130°24'0 0.0
2014-Dec-18 09:32N 33°38' E 130°24'0 0.0
2014-Dec-18 08:32N 33°38' E 130°24'0 0.0
2014-Dec-18 07:32N 33°38' E 130°24'0 0.0
2014-Dec-18 06:32N 33°38' E 130°24'0 0.0
2014-Dec-18 05:33N 33°38' E 130°24'0 0.0
2014-Dec-18 04:33N 33°38' E 130°24'0 0.0
2014-Dec-18 03:32N 33°38' E 130°24'7 7.7
2014-Dec-18 02:33N 33°41' E 130°16'2119.5
2014-Dec-18 01:27N 33°59' E 130°30'21615.5
2014-Dec-17 11:34N 34°34' E 134°48'1514.7
2014-Dec-17 10:33N 34°35' E 135°05'2121.2
2014-Dec-17 09:34N 34°14' E 134°59'2020.0
2014-Dec-17 08:33N 33°54' E 135°02'24013.3
2014-Dec-16 14:33N 35°05' E 139°40'1312.9
2014-Dec-16 13:33N 35°17' E 139°45'1514.6
2014-Dec-16 12:33N 35°30' E 139°51'7 0.4
2014-Dec-15 20:19N 35°37' E 139°48'0 0.0
2014-Dec-14 23:19N 35°37' E 139°48'0 0.0
2014-Dec-14 22:22N 35°37' E 139°48'0 0.0
2014-Dec-14 21:10N 35°37' E 139°48'0 0.0
2014-Dec-14 20:33N 35°37' E 139°48'8 7.7
2014-Dec-14 19:33N 35°30' E 139°52'1413.9
2014-Dec-14 18:33N 35°17' E 139°45'1615.6
2014-Dec-14 17:32N 35°02' E 139°40'23918.4
2014-Dec-14 04:33N 34°03' E 134°59'2221.7
2014-Dec-14 03:33N 34°25' E 135°00'1211.6
2014-Dec-14 02:33N 34°35' E 134°52'  
Track history (hours):
 
Tides and Currents Weather Stations Pressure Air Temp Water Temp Dewpoint Dewpoint Depression Visibility Wind Speed Wind Dir Waves Ship Positions

Sunflower Hakata

Last reported at 2014-Dec-22 20:32 UTC. Time now 2014-Dec-22 21:24 UTC.
Position N 33°37' E 130°24'.

Length 167 m; draft 6.5 m.

Type: Cargo ship. MMSI: 431501764.

Date/timePositionNaut miles runAvg speedWind from/ knotsBaromVisibWave heightAir tempDewpointWater temp
2014-Dec-22 20:32N 33°37' E 130°24'0 0.0
2014-Dec-22 19:32N 33°37' E 130°24'0 0.0
2014-Dec-22 18:32N 33°37' E 130°24'0 0.0
2014-Dec-22 17:32N 33°37' E 130°24'0 0.0
2014-Dec-22 16:32N 33°37' E 130°24'0 0.0
2014-Dec-22 15:32N 33°37' E 130°24'0 0.0
2014-Dec-22 14:32N 33°37' E 130°24'0 0.0
2014-Dec-22 13:32N 33°37' E 130°24'0 0.0
2014-Dec-22 12:32N 33°37' E 130°24'0 0.0
2014-Dec-22 11:32N 33°37' E 130°24'0 0.0
2014-Dec-22 10:32N 33°37' E 130°24'0 0.0
2014-Dec-22 09:32N 33°37' E 130°24'0 0.0
2014-Dec-22 08:32N 33°37' E 130°24'0 0.0
2014-Dec-22 07:32N 33°37' E 130°24'0 0.0
2014-Dec-22 06:32N 33°37' E 130°24'0 0.0
2014-Dec-22 05:32N 33°37' E 130°24'0 0.0
2014-Dec-22 04:32N 33°37' E 130°24'0 0.0
2014-Dec-22 03:32N 33°37' E 130°24'0 0.0
2014-Dec-22 02:32N 33°37' E 130°24'0 0.0
2014-Dec-22 01:32N 33°37' E 130°24'0 0.0
2014-Dec-22 00:32N 33°37' E 130°24'0 0.0
2014-Dec-21 23:32N 33°37' E 130°24'0 0.0
2014-Dec-21 22:32N 33°37' E 130°24'0 0.0
2014-Dec-21 21:33N 33°37' E 130°24'0 0.3
2014-Dec-21 20:33N 33°37' E 130°24'9 9.2
2014-Dec-21 19:33N 33°44' E 130°16'3416.7
2014-Dec-21 17:31N 34°01' E 130°51'44016.3
2014-Dec-20 14:32N 35°04' E 139°40'1414.3
2014-Dec-20 13:33N 35°17' E 139°44'1515.5
2014-Dec-20 12:33N 35°32' E 139°51'6 5.9
2014-Dec-20 11:33N 35°37' E 139°48'0 0.0
2014-Dec-19 23:21N 35°37' E 139°48'2 3.0
2014-Dec-19 22:33N 35°36' E 139°50'1515.5
2014-Dec-19 21:33N 35°21' E 139°45'1414.1
2014-Dec-19 20:33N 35°07' E 139°44'24520.1
2014-Dec-19 08:24N 33°54' E 135°01'1922.4
2014-Dec-19 07:33N 34°13' E 134°59'2121.1
2014-Dec-19 06:34N 34°34' E 135°03'21214.1
2014-Dec-18 15:32N 34°02' E 130°49'2121.5
2014-Dec-18 14:33N 33°57' E 130°24'1918.6
2014-Dec-18 13:33N 33°39' E 130°17'6 6.0
2014-Dec-18 12:32N 33°38' E 130°24'0 0.0
2014-Dec-18 11:32N 33°38' E 130°24'0 0.0
2014-Dec-18 10:29N 33°38' E 130°24'0 0.0
2014-Dec-18 09:32N 33°38' E 130°24'0 0.0
2014-Dec-18 08:32N 33°38' E 130°24'0 0.0
2014-Dec-18 07:32N 33°38' E 130°24'0 0.0
2014-Dec-18 06:32N 33°38' E 130°24'0 0.0
2014-Dec-18 05:33N 33°38' E 130°24'0 0.0
2014-Dec-18 04:33N 33°38' E 130°24'0 0.0
2014-Dec-18 03:32N 33°38' E 130°24'7 7.7
2014-Dec-18 02:33N 33°41' E 130°16'2119.5
2014-Dec-18 01:27N 33°59' E 130°30'21615.5
2014-Dec-17 11:34N 34°34' E 134°48'1514.7
2014-Dec-17 10:33N 34°35' E 135°05'2121.2
2014-Dec-17 09:34N 34°14' E 134°59'2020.0
2014-Dec-17 08:33N 33°54' E 135°02'24013.3
2014-Dec-16 14:33N 35°05' E 139°40'1312.9
2014-Dec-16 13:33N 35°17' E 139°45'1514.6
2014-Dec-16 12:33N 35°30' E 139°51'7 0.4
2014-Dec-15 20:19N 35°37' E 139°48'0 0.0
2014-Dec-14 23:19N 35°37' E 139°48'0 0.0
2014-Dec-14 22:22N 35°37' E 139°48'0 0.0
2014-Dec-14 21:10N 35°37' E 139°48'0 0.0
2014-Dec-14 20:33N 35°37' E 139°48'8 7.7
2014-Dec-14 19:33N 35°30' E 139°52'1413.9
2014-Dec-14 18:33N 35°17' E 139°45'1615.6
2014-Dec-14 17:32N 35°02' E 139°40'23918.4
2014-Dec-14 04:33N 34°03' E 134°59'2221.7
2014-Dec-14 03:33N 34°25' E 135°00'1211.6
2014-Dec-14 02:33N 34°35' E 134°52'  

Dump ship's entire track history